createdAt,value
2022-09-28T00:03:14.850Z,11.40
2022-09-28T00:13:21.012Z,13.90
2022-09-28T00:23:27.109Z,14.00
2022-09-28T00:33:33.209Z,13.80
2022-09-28T00:43:39.459Z,12.00
2022-09-28T00:53:45.571Z,11.00
2022-09-28T01:03:52.356Z,8.30
2022-09-28T01:13:59.065Z,12.40
2022-09-28T01:24:25.558Z,14.00
2022-09-28T01:34:35.709Z,12.30
2022-09-28T01:44:44.507Z,9.70
2022-09-28T01:54:54.744Z,11.10
2022-09-28T02:05:07.569Z,9.10
2022-09-28T02:15:18.003Z,7.80
2022-09-28T02:25:30.256Z,6.90
2022-09-28T02:35:36.611Z,7.30
2022-09-28T02:45:48.662Z,8.50
2022-09-28T02:55:57.753Z,6.50
2022-09-28T03:06:26.917Z,6.90
2022-09-28T03:16:33.543Z,9.30
2022-09-28T03:26:39.959Z,10.60
2022-09-28T03:36:45.997Z,10.00
2022-09-28T03:46:52.050Z,11.10
2022-09-28T03:56:58.185Z,8.60
2022-09-28T04:07:04.262Z,8.10
2022-09-28T04:17:10.345Z,6.80
2022-09-28T04:27:35.139Z,7.10
2022-09-28T04:37:41.497Z,7.40
2022-09-28T04:47:47.559Z,7.00
2022-09-28T04:57:53.625Z,7.30
2022-09-28T05:08:00.414Z,7.90
2022-09-28T05:18:06.799Z,7.50
2022-09-28T05:28:12.931Z,8.60
2022-09-28T05:38:19.399Z,10.60
2022-09-28T05:48:25.436Z,9.20
2022-09-28T05:58:31.477Z,7.30
2022-09-28T06:08:37.596Z,6.60
2022-09-28T06:18:43.724Z,6.10
2022-09-28T06:28:49.799Z,5.60
2022-09-28T06:38:55.844Z,5.50
2022-09-28T06:49:01.873Z,5.00
2022-09-28T06:59:07.963Z,4.60
2022-09-28T07:09:30.320Z,4.60
2022-09-28T07:19:38.633Z,4.80
2022-09-28T07:29:44.721Z,4.50
2022-09-28T07:40:09.576Z,4.20
2022-09-28T07:50:16.464Z,3.70
2022-09-28T08:00:22.672Z,3.50
2022-09-28T08:10:28.932Z,4.00
2022-09-28T08:20:53.703Z,3.80
2022-09-28T08:31:00.695Z,3.05
2022-09-28T08:41:22.155Z,3.50
2022-09-28T08:51:34.636Z,2.90
2022-09-28T09:01:43.499Z,2.90
2022-09-28T09:11:58.537Z,3.00
2022-09-28T09:22:18.199Z,3.20
2022-09-28T09:32:32.828Z,2.90
2022-09-28T09:42:57.421Z,2.70
2022-09-28T09:53:15.511Z,2.70
2022-09-28T10:03:26.448Z,2.70
2022-09-28T10:13:33.315Z,2.70
2022-09-28T10:23:40.494Z,2.40
2022-09-28T10:33:46.732Z,2.40
2022-09-28T10:44:10.152Z,2.60
2022-09-28T10:54:18.388Z,2.70
2022-09-28T11:04:27.396Z,2.20
2022-09-28T11:14:42.177Z,2.40
2022-09-28T11:24:51.508Z,2.60
2022-09-28T11:34:59.989Z,2.50
2022-09-28T11:45:06.800Z,2.40
2022-09-28T11:55:13.188Z,2.50
2022-09-28T12:05:22.385Z,2.50
2022-09-28T12:16:13.302Z,2.50
2022-09-28T12:26:35.920Z,2.60
2022-09-28T12:36:51.872Z,2.70
2022-09-28T12:46:57.987Z,2.70
2022-09-28T12:57:19.760Z,2.60
2022-09-28T13:07:28.961Z,2.70
2022-09-28T13:17:40.164Z,2.80
2022-09-28T13:27:49.168Z,3.00
2022-09-28T13:38:24.584Z,2.90
2022-09-28T13:48:56.630Z,3.90
2022-09-28T13:59:25.694Z,3.20
2022-09-28T14:09:45.911Z,4.00
2022-09-28T14:19:56.831Z,4.30
2022-09-28T14:30:15.099Z,3.80
2022-09-28T14:40:49.626Z,3.10
2022-09-28T14:50:58.406Z,3.50
2022-09-28T15:01:06.659Z,3.30
2022-09-28T15:11:24.749Z,2.90
2022-09-28T15:21:41.414Z,3.20
2022-09-28T15:31:52.226Z,3.00
2022-09-28T15:42:01.428Z,4.00
2022-09-28T15:52:06.594Z,6.05
2022-09-28T16:02:13.612Z,8.70
2022-09-28T16:12:21.192Z,19.00
2022-09-28T16:22:28.893Z,11.40
2022-09-28T16:32:42.703Z,12.10
2022-09-28T16:42:49.449Z,9.80
2022-09-28T16:53:22.508Z,8.70
2022-09-28T17:03:29.304Z,10.90
2022-09-28T17:13:36.089Z,10.70
2022-09-28T17:23:42.629Z,11.50
2022-09-28T17:33:48.745Z,11.40
2022-09-28T17:43:54.837Z,12.60
2022-09-28T17:54:02.240Z,12.30
2022-09-28T18:04:13.162Z,14.90
2022-09-28T18:14:25.400Z,16.10
2022-09-28T18:24:33.598Z,14.80
2022-09-28T18:34:40.046Z,15.80
2022-09-28T18:44:46.274Z,20.30
2022-09-28T18:54:52.518Z,23.10
2022-09-28T19:04:58.578Z,22.90
2022-09-28T19:15:04.804Z,19.30
2022-09-28T19:25:11.070Z,20.30
2022-09-28T19:35:17.513Z,21.50
2022-09-28T19:45:24.864Z,21.30
2022-09-28T19:55:33.007Z,19.70
2022-09-28T20:05:42.109Z,13.00
2022-09-28T20:15:48.517Z,13.30
2022-09-28T20:25:54.631Z,11.80
2022-09-28T20:36:07.957Z,14.90
2022-09-28T20:46:14.774Z,14.50
2022-09-28T20:56:22.412Z,14.00
2022-09-28T21:06:32.788Z,12.30
2022-09-28T21:16:39.273Z,12.30
2022-09-28T21:26:45.356Z,11.20
2022-09-28T21:36:55.757Z,10.50
2022-09-28T21:47:01.829Z,10.30
2022-09-28T21:57:08.066Z,10.50
2022-09-28T22:07:14.131Z,11.40
2022-09-28T22:17:20.265Z,11.80
2022-09-28T22:27:26.361Z,10.10
2022-09-28T22:37:34.033Z,8.20
2022-09-28T22:47:40.383Z,6.80
2022-09-28T22:57:46.714Z,5.60
2022-09-28T23:07:52.708Z,5.20
2022-09-28T23:17:58.899Z,5.50
